sensor_id;sensor_type;location;lat;lon;timestamp;pressure;altitude;pressure_sealevel;temperature;humidity
15880;BME280;61999;51.514;14.614;2023-04-06T00:00:39;100528.38;;;-2.68;42.02
15880;BME280;61999;51.514;14.614;2023-04-06T00:03:07;100525.00;;;-2.70;42.49
15880;BME280;61999;51.514;14.614;2023-04-06T00:05:35;100527.59;;;-2.72;42.36
15880;BME280;61999;51.514;14.614;2023-04-06T00:08:05;100522.41;;;-2.72;41.75
15880;BME280;61999;51.514;14.614;2023-04-06T00:10:33;100529.28;;;-2.71;42.27
15880;BME280;61999;51.514;14.614;2023-04-06T00:13:02;100527.59;;;-2.72;41.61
15880;BME280;61999;51.514;14.614;2023-04-06T00:15:30;100522.47;;;-2.75;42.10
15880;BME280;61999;51.514;14.614;2023-04-06T00:17:58;100516.53;;;-2.79;42.04
15880;BME280;61999;51.514;14.614;2023-04-06T00:20:26;100526.84;;;-2.79;41.53
15880;BME280;61999;51.514;14.614;2023-04-06T00:22:54;100526.00;;;-2.82;41.69
15880;BME280;61999;51.514;14.614;2023-04-06T00:25:23;100523.53;;;-2.87;41.65
15880;BME280;61999;51.514;14.614;2023-04-06T00:27:51;100520.13;;;-2.89;42.43
15880;BME280;61999;51.514;14.614;2023-04-06T00:30:20;100521.00;;;-2.91;41.72
15880;BME280;61999;51.514;14.614;2023-04-06T00:32:48;100521.00;;;-2.91;41.91
15880;BME280;61999;51.514;14.614;2023-04-06T00:35:16;100517.59;;;-2.92;41.60
15880;BME280;61999;51.514;14.614;2023-04-06T00:37:46;100519.38;;;-2.95;42.14
15880;BME280;61999;51.514;14.614;2023-04-06T00:40:14;100519.38;;;-2.95;41.80
15880;BME280;61999;51.514;14.614;2023-04-06T00:42:44;100502.16;;;-2.96;41.72
15880;BME280;61999;51.514;14.614;2023-04-06T00:45:12;100507.31;;;-2.96;41.76
15880;BME280;61999;51.514;14.614;2023-04-06T00:47:40;100510.78;;;-2.97;41.87
15880;BME280;61999;51.514;14.614;2023-04-06T00:50:09;100503.09;;;-2.99;42.20
15880;BME280;61999;51.514;14.614;2023-04-06T00:52:38;100511.78;;;-3.05;42.98
15880;BME280;61999;51.514;14.614;2023-04-06T00:55:07;100503.38;;;-3.17;44.70
15880;BME280;61999;51.514;14.614;2023-04-06T00:57:35;100502.41;;;-3.12;43.40
15880;BME280;61999;51.514;14.614;2023-04-06T01:00:07;100504.06;;;-3.08;43.22
15880;BME280;61999;51.514;14.614;2023-04-06T01:02:35;100500.63;;;-3.07;43.24
15880;BME280;61999;51.514;14.614;2023-04-06T01:05:05;100500.59;;;-3.04;42.89
15880;BME280;61999;51.514;14.614;2023-04-06T01:07:33;100496.28;;;-3.03;43.15
15880;BME280;61999;51.514;14.614;2023-04-06T01:10:02;100503.94;;;-2.98;43.08
15880;BME280;61999;51.514;14.614;2023-04-06T01:12:30;100503.94;;;-2.98;42.71
15880;BME280;61999;51.514;14.614;2023-04-06T01:15:00;100500.59;;;-3.04;43.40
15880;BME280;61999;51.514;14.614;2023-04-06T01:17:29;100504.00;;;-3.02;43.11
15880;BME280;61999;51.514;14.614;2023-04-06T01:19:57;100503.94;;;-2.98;43.37
15880;BME280;61999;51.514;14.614;2023-04-06T01:22:27;100506.47;;;-2.97;43.05
15880;BME280;61999;51.514;14.614;2023-04-06T01:24:55;100507.31;;;-2.96;43.23
15880;BME280;61999;51.514;14.614;2023-04-06T01:27:23;100497.88;;;-2.96;42.85
15880;BME280;61999;51.514;14.614;2023-04-06T01:29:53;100506.44;;;-2.94;43.28
15880;BME280;61999;51.514;14.614;2023-04-06T01:32:21;100511.63;;;-2.95;43.41
15880;BME280;61999;51.514;14.614;2023-04-06T01:34:49;100510.75;;;-2.94;43.32
15880;BME280;61999;51.514;14.614;2023-04-06T01:37:17;100509.84;;;-2.92;43.26
15880;BME280;61999;51.514;14.614;2023-04-06T01:39:47;100503.78;;;-2.89;42.81
15880;BME280;61999;51.514;14.614;2023-04-06T01:42:15;100500.31;;;-2.88;43.57
15880;BME280;61999;51.514;14.614;2023-04-06T01:44:45;100498.59;;;-2.86;43.32
15880;BME280;61999;51.514;14.614;2023-04-06T01:47:23;100504.69;;;-2.92;44.79
15880;BME280;61999;51.514;14.614;2023-04-06T01:49:51;100498.63;;;-2.89;43.79
15880;BME280;61999;51.514;14.614;2023-04-06T01:52:19;100501.16;;;-2.88;43.51
15880;BME280;61999;51.514;14.614;2023-04-06T01:54:49;100504.56;;;-2.84;43.23
15880;BME280;61999;51.514;14.614;2023-04-06T01:57:17;100498.59;;;-2.86;42.97
15880;BME280;61999;51.514;14.614;2023-04-06T01:59:45;100508.91;;;-2.86;44.03
15880;BME280;61999;51.514;14.614;2023-04-06T02:02:13;100503.81;;;-2.91;43.51
15880;BME280;61999;51.514;14.614;2023-04-06T02:04:41;100503.78;;;-2.89;43.43
15880;BME280;61999;51.514;14.614;2023-04-06T02:07:09;100501.22;;;-2.91;43.27
15880;BME280;61999;51.514;14.614;2023-04-06T02:09:37;100498.88;;;-3.05;45.34
15880;BME280;61999;51.514;14.614;2023-04-06T02:12:07;100492.00;;;-3.06;45.10
15880;BME280;61999;51.514;14.614;2023-04-06T02:14:35;100492.31;;;-3.24;45.34
15880;BME280;61999;51.514;14.614;2023-04-06T02:17:03;100494.00;;;-3.21;44.77
15880;BME280;61999;51.514;14.614;2023-04-06T02:19:31;100486.25;;;-3.21;44.07
15880;BME280;61999;51.514;14.614;2023-04-06T02:21:59;100489.72;;;-3.24;43.85
15880;BME280;61999;51.514;14.614;2023-04-06T02:24:27;100489.78;;;-3.29;44.44
15880;BME280;61999;51.514;14.614;2023-04-06T02:26:55;100490.63;;;-3.28;43.89
15880;BME280;61999;51.514;14.614;2023-04-06T02:29:25;100496.72;;;-3.32;43.64
15880;BME280;61999;51.514;14.614;2023-04-06T02:31:53;100501.03;;;-3.34;43.89
15880;BME280;61999;51.514;14.614;2023-04-06T02:34:21;100495.88;;;-3.34;43.83
15880;BME280;61999;51.514;14.614;2023-04-06T02:36:49;100498.50;;;-3.37;44.03
15880;BME280;61999;51.514;14.614;2023-04-06T02:39:19;100506.22;;;-3.37;44.11
15880;BME280;61999;51.514;14.614;2023-04-06T02:41:47;100501.13;;;-3.40;44.07
15880;BME280;61999;51.514;14.614;2023-04-06T02:44:15;100507.13;;;-3.40;44.04
15880;BME280;61999;51.514;14.614;2023-04-06T02:46:44;100503.69;;;-3.40;43.95
15880;BME280;61999;51.514;14.614;2023-04-06T02:49:12;100498.53;;;-3.40;44.19
15880;BME280;61999;51.514;14.614;2023-04-06T02:51:40;100502.03;;;-3.43;44.30
15880;BME280;61999;51.514;14.614;2023-04-06T02:54:08;100496.88;;;-3.43;44.26
15880;BME280;61999;51.514;14.614;2023-04-06T02:56:37;100499.09;;;-3.80;50.03
15880;BME280;61999;51.514;14.614;2023-04-06T02:59:05;100506.22;;;-4.95;54.63
15880;BME280;61999;51.514;14.614;2023-04-06T03:01:33;100501.50;;;-5.62;57.51
15880;BME280;61999;51.514;14.614;2023-04-06T03:04:03;100501.81;;;-6.51;61.34
15880;BME280;61999;51.514;14.614;2023-04-06T03:06:31;100493.31;;;-7.02;63.89
15880;BME280;61999;51.514;14.614;2023-04-06T03:08:59;100497.56;;;-6.65;64.49
15880;BME280;61999;51.514;14.614;2023-04-06T03:11:27;100501.41;;;-5.44;58.92
15880;BME280;61999;51.514;14.614;2023-04-06T03:13:55;100509.66;;;-4.93;55.40
15880;BME280;61999;51.514;14.614;2023-04-06T03:16:23;100502.53;;;-4.63;53.32
15880;BME280;61999;51.514;14.614;2023-04-06T03:18:52;100504.94;;;-4.45;51.66
15880;BME280;61999;51.514;14.614;2023-04-06T03:21:21;100503.91;;;-4.31;50.56
15880;BME280;61999;51.514;14.614;2023-04-06T03:23:49;100502.97;;;-4.23;49.32
15880;BME280;61999;51.514;14.614;2023-04-06T03:26:18;100502.09;;;-4.20;49.78
15880;BME280;61999;51.514;14.614;2023-04-06T03:28:46;100502.28;;;-4.39;52.27
15880;BME280;61999;51.514;14.614;2023-04-06T03:31:14;100518.06;;;-4.75;54.30
15880;BME280;61999;51.514;14.614;2023-04-06T03:33:42;100504.84;;;-4.37;51.05
15880;BME280;61999;51.514;14.614;2023-04-06T03:36:10;100507.31;;;-4.26;49.91
15880;BME280;61999;51.514;14.614;2023-04-06T03:38:40;100508.13;;;-4.21;49.38
15880;BME280;61999;51.514;14.614;2023-04-06T03:41:08;100508.94;;;-4.18;48.53
15880;BME280;61999;51.514;14.614;2023-04-06T03:43:36;100519.22;;;-4.16;48.18
15880;BME280;61999;51.514;14.614;2023-04-06T03:46:04;100518.34;;;-4.15;47.98
15880;BME280;61999;51.514;14.614;2023-04-06T03:48:32;100516.63;;;-4.15;47.32
15880;BME280;61999;51.514;14.614;2023-04-06T03:51:00;100520.91;;;-4.15;47.28
15880;BME280;61999;51.514;14.614;2023-04-06T03:53:28;100526.06;;;-4.17;47.10
15880;BME280;61999;51.514;14.614;2023-04-06T03:55:58;100530.41;;;-4.19;47.23
15880;BME280;61999;51.514;14.614;2023-04-06T03:58:27;100534.69;;;-4.19;46.99
15880;BME280;61999;51.514;14.614;2023-04-06T04:00:55;100538.13;;;-4.20;46.87
15880;BME280;61999;51.514;14.614;2023-04-06T04:03:23;100532.97;;;-4.20;47.04
15880;BME280;61999;51.514;14.614;2023-04-06T04:05:54;100542.44;;;-4.21;46.55
15880;BME280;61999;51.514;14.614;2023-04-06T04:08:24;100539.84;;;-4.22;46.43
15880;BME280;61999;51.514;14.614;2023-04-06T04:10:52;100540.72;;;-4.23;46.63
15880;BME280;61999;51.514;14.614;2023-04-06T04:13:22;100540.75;;;-4.25;46.61
15880;BME280;61999;51.514;14.614;2023-04-06T04:15:50;100541.63;;;-4.26;46.66
15880;BME280;61999;51.514;14.614;2023-04-06T04:18:18;100543.34;;;-4.26;46.41
15880;BME280;61999;51.514;14.614;2023-04-06T04:20:46;100533.03;;;-4.26;46.22
15880;BME280;61999;51.514;14.614;2023-04-06T04:23:14;100539.91;;;-4.28;46.67
15880;BME280;61999;51.514;14.614;2023-04-06T04:25:43;100541.66;;;-4.27;46.79
15880;BME280;61999;51.514;14.614;2023-04-06T04:28:11;100545.09;;;-4.30;47.26
15880;BME280;61999;51.514;14.614;2023-04-06T04:30:41;100539.91;;;-4.28;46.79
15880;BME280;61999;51.514;14.614;2023-04-06T04:33:09;100552.78;;;-4.27;46.82
15880;BME280;61999;51.514;14.614;2023-04-06T04:35:37;100545.03;;;-4.25;46.36
15880;BME280;61999;51.514;14.614;2023-04-06T04:38:05;100544.19;;;-4.24;46.63
15880;BME280;61999;51.514;14.614;2023-04-06T04:40:33;100545.00;;;-4.22;46.72
15880;BME280;61999;51.514;14.614;2023-04-06T04:43:01;100548.41;;;-4.20;46.81
15880;BME280;61999;51.514;14.614;2023-04-06T04:45:29;100546.72;;;-4.21;47.17
15880;BME280;61999;51.514;14.614;2023-04-06T04:47:58;100544.97;;;-4.16;46.74
15880;BME280;61999;51.514;14.614;2023-04-06T04:50:27;100548.34;;;-4.14;46.35
15880;BME280;61999;51.514;14.614;2023-04-06T04:52:56;100551.75;;;-4.09;46.35
15880;BME280;61999;51.514;14.614;2023-04-06T04:55:24;100551.75;;;-4.06;46.16
15880;BME280;61999;51.514;14.614;2023-04-06T04:57:52;100550.00;;;-4.04;46.58
15880;BME280;61999;51.514;14.614;2023-04-06T05:00:21;100546.50;;;-4.00;46.55
15880;BME280;61999;51.514;14.614;2023-04-06T05:02:49;100547.34;;;-3.96;46.27
15880;BME280;61999;51.514;14.614;2023-04-06T05:05:19;100559.31;;;-3.92;46.25
15880;BME280;61999;51.514;14.614;2023-04-06T05:07:47;100549.88;;;-3.92;46.33
15880;BME280;61999;51.514;14.614;2023-04-06T05:10:16;100558.44;;;-3.89;46.08
15880;BME280;61999;51.514;14.614;2023-04-06T05:12:44;100550.66;;;-3.86;46.36
15880;BME280;61999;51.514;14.614;2023-04-06T05:15:12;100554.09;;;-3.84;46.73
15880;BME280;61999;51.514;14.614;2023-04-06T05:17:41;100546.31;;;-3.81;47.09
15880;BME280;61999;51.514;14.614;2023-04-06T05:20:10;100546.63;;;-4.14;51.77
15880;BME280;61999;51.514;14.614;2023-04-06T05:22:40;100551.63;;;-3.97;49.96
15880;BME280;61999;51.514;14.614;2023-04-06T05:25:08;100550.63;;;-3.85;48.79
15880;BME280;61999;51.514;14.614;2023-04-06T05:27:36;100561.69;;;-3.75;48.17
15880;BME280;61999;51.514;14.614;2023-04-06T05:30:06;100560.69;;;-3.65;48.02
15880;BME280;61999;51.514;14.614;2023-04-06T05:32:35;100561.47;;;-3.57;47.49
15880;BME280;61999;51.514;14.614;2023-04-06T05:35:04;100559.72;;;-3.53;47.07
15880;BME280;61999;51.514;14.614;2023-04-06T05:37:32;100563.09;;;-3.50;47.51
15880;BME280;61999;51.514;14.614;2023-04-06T05:40:22;100562.13;;;-3.42;47.56
15880;BME280;61999;51.514;14.614;2023-04-06T05:43:06;100562.09;;;-3.39;47.64
15880;BME280;61999;51.514;14.614;2023-04-06T05:45:34;100565.47;;;-3.33;47.27
15880;BME280;61999;51.514;14.614;2023-04-06T05:48:03;100567.13;;;-3.27;47.35
15880;BME280;61999;51.514;14.614;2023-04-06T05:50:31;100562.75;;;-3.25;47.31
15880;BME280;61999;51.514;14.614;2023-04-06T05:52:59;100559.28;;;-3.21;47.55
15880;BME280;61999;51.514;14.614;2023-04-06T05:55:29;100567.81;;;-3.16;47.82
15880;BME280;61999;51.514;14.614;2023-04-06T05:57:57;100566.88;;;-3.12;48.01
15880;BME280;61999;51.514;14.614;2023-04-06T06:00:25;100562.53;;;-3.07;48.09
15880;BME280;61999;51.514;14.614;2023-04-06T06:02:53;100564.16;;;-3.03;48.49
15880;BME280;61999;51.514;14.614;2023-04-06T06:05:21;100566.66;;;-2.95;49.14
15880;BME280;61999;51.514;14.614;2023-04-06T06:07:49;100558.84;;;-2.90;49.39
15880;BME280;61999;51.514;14.614;2023-04-06T06:10:17;100562.06;;;-2.76;49.20
15880;BME280;61999;51.514;14.614;2023-04-06T06:12:47;100570.44;;;-2.62;48.92
15880;BME280;61999;51.514;14.614;2023-04-06T06:15:18;100571.09;;;-2.50;48.52
15880;BME280;61999;51.514;14.614;2023-04-06T06:17:46;100563.22;;;-2.41;48.37
15880;BME280;61999;51.514;14.614;2023-04-06T06:20:15;100571.63;;;-2.30;48.65
15880;BME280;61999;51.514;14.614;2023-04-06T06:22:43;100570.59;;;-2.21;48.51
15880;BME280;61999;51.514;14.614;2023-04-06T06:25:11;100566.16;;;-2.15;48.67
15880;BME280;61999;51.514;14.614;2023-04-06T06:27:39;100563.41;;;-2.05;48.97
15880;BME280;61999;51.514;14.614;2023-04-06T06:30:09;100568.41;;;-1.96;48.80
15880;BME280;61999;51.514;14.614;2023-04-06T06:32:37;100570.66;;;-1.78;48.48
15880;BME280;61999;51.514;14.614;2023-04-06T06:35:06;100572.94;;;-1.61;48.34
15880;BME280;61999;51.514;14.614;2023-04-06T06:37:34;100569.31;;;-1.52;49.20
15880;BME280;61999;51.514;14.614;2023-04-06T06:40:04;100564.81;;;-1.44;48.77
15880;BME280;61999;51.514;14.614;2023-04-06T06:42:32;100571.41;;;-1.31;49.03
15880;BME280;61999;51.514;14.614;2023-04-06T06:45:00;100565.84;;;-1.12;48.20
15880;BME280;61999;51.514;14.614;2023-04-06T06:47:30;100569.97;;;-1.04;48.08
15880;BME280;61999;51.514;14.614;2023-04-06T06:49:58;100566.03;;;-0.83;47.82
15880;BME280;61999;51.514;14.614;2023-04-06T06:52:26;100565.63;;;-0.66;48.23
15880;BME280;61999;51.514;14.614;2023-04-06T06:54:55;100568.88;;;-0.58;48.07
15880;BME280;61999;51.514;14.614;2023-04-06T06:57:24;100564.31;;;-0.48;47.75
15880;BME280;61999;51.514;14.614;2023-04-06T06:59:52;100556.34;;;-0.40;46.66
15880;BME280;61999;51.514;14.614;2023-04-06T07:02:20;100559.34;;;-0.23;46.98
15880;BME280;61999;51.514;14.614;2023-04-06T07:04:49;100566.50;;;0.00;46.68
15880;BME280;61999;51.514;14.614;2023-04-06T07:07:17;100569.75;;;0.08;46.60
15880;BME280;61999;51.514;14.614;2023-04-06T07:09:45;100562.66;;;0.15;46.37
15880;BME280;61999;51.514;14.614;2023-04-06T07:12:14;100562.44;;;0.23;46.39
15880;BME280;61999;51.514;14.614;2023-04-06T07:14:43;100560.34;;;0.37;45.77
15880;BME280;61999;51.514;14.614;2023-04-06T07:17:11;100568.47;;;0.54;45.90
15880;BME280;61999;51.514;14.614;2023-04-06T07:19:39;100568.03;;;0.70;45.54
15880;BME280;61999;51.514;14.614;2023-04-06T07:22:09;100562.38;;;0.85;45.15
15880;BME280;61999;51.514;14.614;2023-04-06T07:24:37;100562.94;;;0.95;44.77
15880;BME280;61999;51.514;14.614;2023-04-06T07:27:05;100571.13;;;1.11;44.25
15880;BME280;61999;51.514;14.614;2023-04-06T07:29:33;100566.38;;;1.23;43.72
15880;BME280;61999;51.514;14.614;2023-04-06T07:32:02;100569.31;;;1.39;42.92
15880;BME280;61999;51.514;14.614;2023-04-06T07:34:30;100564.34;;;1.58;42.75
15880;BME280;61999;51.514;14.614;2023-04-06T07:36:58;100568.97;;;1.75;42.23
15880;BME280;61999;51.514;14.614;2023-04-06T07:39:30;100575.97;;;2.00;40.78
15880;BME280;61999;51.514;14.614;2023-04-06T07:41:58;100563.75;;;2.02;39.62
15880;BME280;61999;51.514;14.614;2023-04-06T07:44:26;100570.00;;;2.21;39.33
15880;BME280;61999;51.514;14.614;2023-04-06T07:46:54;100564.75;;;2.46;38.43
15880;BME280;61999;51.514;14.614;2023-04-06T07:49:22;100561.06;;;2.52;36.32
15880;BME280;61999;51.514;14.614;2023-04-06T07:51:51;100566.88;;;2.35;35.66
15880;BME280;61999;51.514;14.614;2023-04-06T07:54:19;100564.91;;;2.65;35.37
15880;BME280;61999;51.514;14.614;2023-04-06T07:56:48;100562.50;;;2.82;36.16
15880;BME280;61999;51.514;14.614;2023-04-06T07:59:16;100564.34;;;3.02;35.75
15880;BME280;61999;51.514;14.614;2023-04-06T08:01:45;100563.13;;;3.11;32.85
15880;BME280;61999;51.514;14.614;2023-04-06T08:04:13;100556.22;;;3.32;33.44
15880;BME280;61999;51.514;14.614;2023-04-06T08:06:41;100559.94;;;3.47;33.47
15880;BME280;61999;51.514;14.614;2023-04-06T08:09:09;100559.44;;;3.59;32.70
15880;BME280;61999;51.514;14.614;2023-04-06T08:11:37;100562.75;;;3.63;31.70
15880;BME280;61999;51.514;14.614;2023-04-06T08:14:06;100563.16;;;3.74;32.13
15880;BME280;61999;51.514;14.614;2023-04-06T08:16:35;100561.44;;;3.73;31.16
15880;BME280;61999;51.514;14.614;2023-04-06T08:19:03;100562.31;;;3.73;31.05
15880;BME280;61999;51.514;14.614;2023-04-06T08:21:31;100565.03;;;3.91;31.23
15880;BME280;61999;51.514;14.614;2023-04-06T08:23:59;100561.34;;;4.15;31.72
15880;BME280;61999;51.514;14.614;2023-04-06T08:26:27;100568.50;;;4.31;31.28
15880;BME280;61999;51.514;14.614;2023-04-06T08:28:55;100569.63;;;4.44;30.77
15880;BME280;61999;51.514;14.614;2023-04-06T08:31:24;100555.63;;;4.66;30.56
15880;BME280;61999;51.514;14.614;2023-04-06T08:33:53;100565.22;;;4.84;30.33
15880;BME280;61999;51.514;14.614;2023-04-06T08:36:21;100555.66;;;5.02;28.18
15880;BME280;61999;51.514;14.614;2023-04-06T08:38:49;100556.25;;;5.26;30.93
15880;BME280;61999;51.514;14.614;2023-04-06T08:41:18;100555.94;;;5.32;29.28
15880;BME280;61999;51.514;14.614;2023-04-06T08:43:49;100557.16;;;5.42;28.88
15880;BME280;61999;51.514;14.614;2023-04-06T08:46:17;100548.56;;;5.58;29.04
15880;BME280;61999;51.514;14.614;2023-04-06T08:48:48;100550.66;;;5.51;29.01
15880;BME280;61999;51.514;14.614;2023-04-06T08:51:18;100557.09;;;5.61;28.87
15880;BME280;61999;51.514;14.614;2023-04-06T08:53:47;100550.88;;;5.81;29.60
15880;BME280;61999;51.514;14.614;2023-04-06T08:56:17;100555.47;;;3.71;27.91
15880;BME280;61999;51.514;14.614;2023-04-06T08:58:45;100551.31;;;4.83;31.05
15880;BME280;61999;51.514;14.614;2023-04-06T09:01:18;100545.31;;;5.52;29.83
15880;BME280;61999;51.514;14.614;2023-04-06T09:03:51;100547.44;;;6.14;29.34
15880;BME280;61999;51.514;14.614;2023-04-06T09:06:20;100551.72;;;6.64;28.41
15880;BME280;61999;51.514;14.614;2023-04-06T09:08:48;100550.19;;;6.76;28.73
15880;BME280;61999;51.514;14.614;2023-04-06T09:11:17;100541.53;;;7.21;28.28
15880;BME280;61999;51.514;14.614;2023-04-06T09:13:47;100538.78;;;7.39;27.68
15880;BME280;61999;51.514;14.614;2023-04-06T09:16:16;100531.59;;;7.56;28.32
15880;BME280;61999;51.514;14.614;2023-04-06T09:18:45;100545.28;;;7.17;24.98
15880;BME280;61999;51.514;14.614;2023-04-06T09:21:18;100537.69;;;6.49;24.77
15880;BME280;61999;51.514;14.614;2023-04-06T09:23:58;100534.34;;;4.35;27.72
15880;BME280;61999;51.514;14.614;2023-04-06T09:26:26;100542.06;;;3.99;29.60
15880;BME280;61999;51.514;14.614;2023-04-06T09:28:57;100536.78;;;5.84;29.38
15880;BME280;61999;51.514;14.614;2023-04-06T09:31:29;100529.81;;;6.97;28.37
15880;BME280;61999;51.514;14.614;2023-04-06T09:34:00;100526.44;;;6.95;24.94
15880;BME280;61999;51.514;14.614;2023-04-06T09:36:34;100535.56;;;7.03;27.23
15880;BME280;61999;51.514;14.614;2023-04-06T09:39:05;100524.50;;;7.73;25.13
15880;BME280;61999;51.514;14.614;2023-04-06T09:41:35;100522.56;;;8.34;24.91
15880;BME280;61999;51.514;14.614;2023-04-06T09:44:05;100519.09;;;8.89;25.13
15880;BME280;61999;51.514;14.614;2023-04-06T09:46:35;100511.84;;;9.45;24.87
15880;BME280;61999;51.514;14.614;2023-04-06T09:49:14;100518.19;;;8.34;23.26
15880;BME280;61999;51.514;14.614;2023-04-06T09:52:06;100515.41;;;9.31;24.71
15880;BME280;61999;51.514;14.614;2023-04-06T09:54:37;100517.28;;;9.82;24.18
15880;BME280;61999;51.514;14.614;2023-04-06T09:57:11;100510.56;;;10.53;23.36
15880;BME280;61999;51.514;14.614;2023-04-06T09:59:50;100512.97;;;9.81;22.18
15880;BME280;61999;51.514;14.614;2023-04-06T10:02:32;100508.50;;;9.56;24.16
15880;BME280;61999;51.514;14.614;2023-04-06T10:05:08;100507.28;;;9.87;24.05
15880;BME280;61999;51.514;14.614;2023-04-06T10:07:40;100505.75;;;10.21;24.04
15880;BME280;61999;51.514;14.614;2023-04-06T10:10:15;100509.50;;;10.56;24.96
15880;BME280;61999;51.514;14.614;2023-04-06T10:12:45;100506.81;;;10.19;23.71
15880;BME280;61999;51.514;14.614;2023-04-06T10:15:15;100509.16;;;10.47;24.90
15880;BME280;61999;51.514;14.614;2023-04-06T10:17:45;100509.53;;;10.91;25.42
15880;BME280;61999;51.514;14.614;2023-04-06T10:20:21;100503.38;;;11.03;22.66
15880;BME280;61999;51.514;14.614;2023-04-06T10:22:59;100494.56;;;11.62;25.28
15880;BME280;61999;51.514;14.614;2023-04-06T10:25:31;100499.63;;;12.33;24.11
15880;BME280;61999;51.514;14.614;2023-04-06T10:28:00;100497.47;;;11.93;22.54
15880;BME280;61999;51.514;14.614;2023-04-06T10:30:29;100494.41;;;11.41;22.12
15880;BME280;61999;51.514;14.614;2023-04-06T10:32:57;100494.91;;;10.63;21.26
15880;BME280;61999;51.514;14.614;2023-04-06T10:35:36;100492.41;;;9.99;21.33
15880;BME280;61999;51.514;14.614;2023-04-06T10:38:07;100492.16;;;10.88;21.73
15880;BME280;61999;51.514;14.614;2023-04-06T10:40:37;100484.78;;;10.57;20.65
15880;BME280;61999;51.514;14.614;2023-04-06T10:43:10;100485.47;;;9.72;21.07
15880;BME280;61999;51.514;14.614;2023-04-06T10:46:08;100492.31;;;10.37;21.16
15880;BME280;61999;51.514;14.614;2023-04-06T10:48:41;100493.47;;;10.46;21.98
15880;BME280;61999;51.514;14.614;2023-04-06T10:51:12;100485.22;;;10.51;22.09
15880;BME280;61999;51.514;14.614;2023-04-06T10:53:44;100490.16;;;10.18;21.42
15880;BME280;61999;51.514;14.614;2023-04-06T10:56:17;100483.00;;;10.08;21.81
15880;BME280;61999;51.514;14.614;2023-04-06T10:58:51;100482.50;;;10.39;21.72
15880;BME280;61999;51.514;14.614;2023-04-06T11:01:22;100484.78;;;11.05;21.28
15880;BME280;61999;51.514;14.614;2023-04-06T11:03:54;100478.25;;;11.91;20.55
15880;BME280;61999;51.514;14.614;2023-04-06T11:06:27;100472.47;;;12.31;20.36
15880;BME280;61999;51.514;14.614;2023-04-06T11:08:59;100476.19;;;12.39;19.67
15880;BME280;61999;51.514;14.614;2023-04-06T11:11:27;100467.31;;;12.73;19.53
15880;BME280;61999;51.514;14.614;2023-04-06T11:13:58;100473.06;;;12.12;17.37
15880;BME280;61999;51.514;14.614;2023-04-06T11:16:29;100461.19;;;12.17;18.89
15880;BME280;61999;51.514;14.614;2023-04-06T11:18:59;100468.53;;;13.64;18.82
15880;BME280;61999;51.514;14.614;2023-04-06T11:21:36;100452.25;;;14.68;18.80
15880;BME280;61999;51.514;14.614;2023-04-06T11:24:09;100458.28;;;15.19;16.83
15880;BME280;61999;51.514;14.614;2023-04-06T11:26:44;100460.63;;;16.06;16.41
15880;BME280;61999;51.514;14.614;2023-04-06T11:29:31;100455.69;;;16.39;16.70
15880;BME280;61999;51.514;14.614;2023-04-06T11:32:22;100449.72;;;17.35;17.07
15880;BME280;61999;51.514;14.614;2023-04-06T11:34:51;100448.56;;;15.37;15.02
15880;BME280;61999;51.514;14.614;2023-04-06T11:37:19;100448.75;;;13.98;17.27
15880;BME280;61999;51.514;14.614;2023-04-06T11:39:51;100438.31;;;16.81;15.36
15880;BME280;61999;51.514;14.614;2023-04-06T11:42:24;100445.69;;;17.83;14.80
15880;BME280;61999;51.514;14.614;2023-04-06T11:44:55;100436.09;;;18.82;15.33
15880;BME280;61999;51.514;14.614;2023-04-06T11:47:28;100432.25;;;19.81;13.25
15880;BME280;61999;51.514;14.614;2023-04-06T11:50:06;100429.53;;;20.51;13.34
15880;BME280;61999;51.514;14.614;2023-04-06T11:52:35;100433.47;;;20.41;14.56
15880;BME280;61999;51.514;14.614;2023-04-06T11:55:13;100429.97;;;20.86;14.19
15880;BME280;61999;51.514;14.614;2023-04-06T11:57:42;100429.94;;;20.63;14.15
15880;BME280;61999;51.514;14.614;2023-04-06T12:00:12;100431.53;;;19.87;13.11
15880;BME280;61999;51.514;14.614;2023-04-06T12:02:45;100436.06;;;18.49;14.45
15880;BME280;61999;51.514;14.614;2023-04-06T12:05:13;100430.56;;;18.00;14.95
15880;BME280;61999;51.514;14.614;2023-04-06T12:07:42;100431.91;;;17.35;15.43
15880;BME280;61999;51.514;14.614;2023-04-06T12:10:12;100425.44;;;16.58;14.68
15880;BME280;61999;51.514;14.614;2023-04-06T12:12:40;100415.69;;;16.13;14.08
15880;BME280;61999;51.514;14.614;2023-04-06T12:15:09;100427.25;;;15.57;15.09
15880;BME280;61999;51.514;14.614;2023-04-06T12:17:37;100426.66;;;15.06;15.29
15880;BME280;61999;51.514;14.614;2023-04-06T12:20:06;100421.53;;;14.56;15.32
15880;BME280;61999;51.514;14.614;2023-04-06T12:22:39;100425.00;;;13.87;15.86
15880;BME280;61999;51.514;14.614;2023-04-06T12:25:08;100427.63;;;13.56;16.15
15880;BME280;61999;51.514;14.614;2023-04-06T12:27:37;100423.63;;;12.46;16.42
15880;BME280;61999;51.514;14.614;2023-04-06T12:30:07;100420.28;;;12.44;18.04
15880;BME280;61999;51.514;14.614;2023-04-06T12:32:36;100421.16;;;12.65;17.04
15880;BME280;61999;51.514;14.614;2023-04-06T12:35:04;100421.00;;;12.78;17.35
15880;BME280;61999;51.514;14.614;2023-04-06T12:37:32;100414.59;;;11.71;18.24
15880;BME280;61999;51.514;14.614;2023-04-06T12:40:00;100421.44;;;11.51;18.51
15880;BME280;61999;51.514;14.614;2023-04-06T12:42:30;100415.41;;;10.91;19.44
15880;BME280;61999;51.514;14.614;2023-04-06T12:44:59;100419.34;;;10.14;20.05
15880;BME280;61999;51.514;14.614;2023-04-06T12:47:27;100414.88;;;10.51;20.36
15880;BME280;61999;51.514;14.614;2023-04-06T12:49:55;100408.25;;;11.05;19.73
15880;BME280;61999;51.514;14.614;2023-04-06T12:52:23;100406.69;;;11.38;18.82
15880;BME280;61999;51.514;14.614;2023-04-06T12:54:52;100411.31;;;11.34;18.99